Time;durP1;ratioP1;P1;durP2;ratioP2;P2;SDS_P1;SDS_P2;PMS_P1;PMS_P2;Temp;Humidity;BMP_temperature;BMP_pressure;BME280_temperature;BME280_humidity;BME280_pressure;Samples;Min_cycle;Max_cycle;Signal;HPM_P1;HPM_P2
2022/07/31 00:01:56;;;;;;;4.47;4.07;;;23.30;99.90;;;;;;5015327;28;20866;-82
2022/07/31 00:04:27;;;;;;;4.60;4.20;;;23.40;99.90;;;;;;5015732;28;20884;-82
2022/07/31 00:06:56;;;;;;;5.90;4.40;;;23.30;99.90;;;;;;5014971;28;20439;-79
2022/07/31 00:09:24;;;;;;;4.53;4.13;;;23.30;99.90;;;;;;5015589;28;20797;-79
2022/07/31 00:11:54;;;;;;;4.67;4.27;;;23.30;99.90;;;;;;5015289;28;20476;-80
2022/07/31 00:14:32;;;;;;;4.47;4.07;;;23.30;99.90;;;;;;5015262;28;20432;-83
2022/07/31 00:17:09;;;;;;;4.57;4.17;;;23.30;99.90;;;;;;5015516;28;20871;-82
2022/07/31 00:19:36;;;;;;;4.80;4.40;;;23.40;99.90;;;;;;5015210;28;20827;-80
2022/07/31 00:22:16;;;;;;;4.80;4.37;;;23.40;99.90;;;;;;5014954;28;20529;-80
2022/07/31 00:25:07;;;;;;;4.90;4.50;;;23.40;99.90;;;;;;5013539;28;20504;-83
2022/07/31 00:27:37;;;;;;;4.63;4.23;;;23.40;99.90;;;;;;5014718;28;20450;-79
2022/07/31 00:30:16;;;;;;;4.30;3.90;;;23.40;99.90;;;;;;5015035;28;20438;-78
2022/07/31 00:32:47;;;;;;;4.97;4.30;;;23.40;99.90;;;;;;5015146;28;21129;-79
2022/07/31 00:35:22;;;;;;;4.13;3.77;;;23.40;99.90;;;;;;5015312;28;20417;-79
2022/07/31 00:37:57;;;;;;;5.27;4.40;;;23.40;99.90;;;;;;5014424;28;20555;-82
2022/07/31 00:40:26;;;;;;;5.07;4.60;;;23.30;99.90;;;;;;5015085;28;20476;-79
2022/07/31 00:43:04;;;;;;;4.20;3.70;;;23.30;99.90;;;;;;5014789;28;20449;-82
2022/07/31 00:46:03;;;;;;;4.53;4.13;;;23.30;99.90;;;;;;5014837;28;20415;-82
2022/07/31 00:48:42;;;;;;;4.80;4.13;;;23.20;99.90;;;;;;4983028;28;20459;-81
2022/07/31 00:51:14;;;;;;;3.90;3.60;;;23.20;99.90;;;;;;5014735;28;20437;-79
2022/07/31 00:53:43;;;;;;;4.40;4.00;;;23.20;99.90;;;;;;5014658;28;20980;-79
2022/07/31 00:56:13;;;;;;;5.00;4.50;;;23.10;99.90;;;;;;5014219;28;20428;-78
2022/07/31 00:58:49;;;;;;;4.87;4.40;;;23.10;99.90;;;;;;5014890;28;20458;-79
2022/07/31 01:01:20;;;;;;;4.37;4.07;;;23.10;99.90;;;;;;5014623;28;20486;-79
2022/07/31 01:04:17;;;;;;;5.53;4.67;;;23.00;99.90;;;;;;5014520;28;20524;-83
2022/07/31 01:06:45;;;;;;;6.47;4.13;;;23.00;99.90;;;;;;5014114;28;20441;-78
2022/07/31 01:09:15;;;;;;;7.53;4.20;;;23.00;99.90;;;;;;5014297;28;20956;-79
2022/07/31 01:11:58;;;;;;;5.40;4.87;;;22.90;99.90;;;;;;5013448;28;20444;-79
2022/07/31 01:14:34;;;;;;;4.73;4.40;;;22.90;99.90;;;;;;5014437;28;20412;-80
2022/07/31 01:17:05;;;;;;;8.30;4.40;;;22.80;99.90;;;;;;5015810;28;20436;-78
2022/07/31 01:19:44;;;;;;;5.17;4.67;;;22.80;99.90;;;;;;5013563;28;20472;-83
2022/07/31 01:22:16;;;;;;;4.60;4.20;;;22.80;99.90;;;;;;5014085;28;20484;-83
2022/07/31 01:24:52;;;;;;;5.17;4.67;;;22.80;99.90;;;;;;5013837;28;20975;-81
2022/07/31 01:27:36;;;;;;;4.90;4.50;;;22.70;99.90;;;;;;5013962;28;20452;-78
2022/07/31 01:30:16;;;;;;;4.20;3.90;;;22.70;99.90;;;;;;5013789;28;20859;-81
2022/07/31 01:32:54;;;;;;;4.60;4.20;;;22.70;99.90;;;;;;5014365;28;20941;-79
2022/07/31 01:36:02;;;;;;;4.93;3.50;;;22.60;99.90;;;;;;5013936;28;20452;-82
2022/07/31 01:38:38;;;;;;;5.57;5.07;;;22.60;99.90;;;;;;5014320;28;20542;-80
2022/07/31 01:41:16;;;;;;;4.60;4.20;;;22.50;99.90;;;;;;5014198;28;20784;-81
2022/07/31 01:43:54;;;;;;;5.03;4.63;;;22.50;99.90;;;;;;5014382;28;20884;-79
2022/07/31 01:46:24;;;;;;;4.50;4.10;;;22.50;99.90;;;;;;5013849;28;20428;-82
2022/07/31 01:48:59;;;;;;;5.03;4.57;;;22.50;99.90;;;;;;5013872;28;20428;-79
2022/07/31 01:51:34;;;;;;;5.50;4.97;;;22.40;99.90;;;;;;5013808;28;20902;-79
2022/07/31 01:54:07;;;;;;;4.93;4.47;;;22.40;99.90;;;;;;5013326;28;20447;-82
2022/07/31 01:56:36;;;;;;;4.60;4.20;;;22.40;99.90;;;;;;5013768;28;20455;-81
2022/07/31 01:59:10;;;;;;;5.30;4.80;;;22.40;99.90;;;;;;5013174;28;20436;-79
2022/07/31 02:01:39;;;;;;;5.23;4.57;;;22.40;99.90;;;;;;5013762;28;21100;-82
2022/07/31 02:04:10;;;;;;;5.17;4.67;;;22.40;99.90;;;;;;5013626;28;20851;-79
2022/07/31 02:07:07;;;;;;;4.80;4.40;;;22.40;99.90;;;;;;5013336;28;20443;-82
2022/07/31 02:09:43;;;;;;;4.90;4.47;;;22.40;99.90;;;;;;5013525;28;20424;-82
2022/07/31 02:12:14;;;;;;;5.10;4.60;;;22.40;99.90;;;;;;5012871;28;20452;-82
2022/07/31 02:14:47;;;;;;;4.47;4.07;;;22.40;99.90;;;;;;5013327;28;20452;-79
2022/07/31 02:17:18;;;;;;;5.30;4.80;;;22.40;99.90;;;;;;5013064;28;20448;-82
2022/07/31 02:19:51;;;;;;;5.53;5.13;;;22.40;99.90;;;;;;5012602;28;20468;-81
2022/07/31 02:22:29;;;;;;;5.87;4.87;;;22.40;99.90;;;;;;5012396;28;20825;-82
2022/07/31 02:24:58;;;;;;;4.87;4.37;;;22.40;99.90;;;;;;5013407;28;20494;-79
2022/07/31 02:27:33;;;;;;;5.07;4.57;;;22.40;99.90;;;;;;5012462;28;20456;-79
2022/07/31 02:30:19;;;;;;;5.20;4.70;;;22.40;99.90;;;;;;5012716;28;20794;-83
2022/07/31 02:32:49;;;;;;;5.60;5.10;;;22.40;99.90;;;;;;5013098;28;20448;-82
2022/07/31 02:35:24;;;;;;;5.30;4.60;;;22.40;99.90;;;;;;5013167;28;20416;-80
2022/07/31 02:37:56;;;;;;;5.63;5.07;;;22.40;99.90;;;;;;5012776;28;20523;-79
2022/07/31 02:40:34;;;;;;;5.80;5.07;;;22.40;99.90;;;;;;5013091;28;20971;-79
2022/07/31 02:43:03;;;;;;;4.70;4.30;;;22.30;99.90;;;;;;5012974;28;20455;-78
2022/07/31 02:45:32;;;;;;;4.43;4.03;;;22.30;99.90;;;;;;5014224;28;20400;-79
2022/07/31 02:48:05;;;;;;;4.93;4.47;;;22.30;99.90;;;;;;5012509;28;20796;-82
2022/07/31 02:50:37;;;;;;;4.87;4.40;;;22.20;99.90;;;;;;5012757;28;20455;-82
2022/07/31 02:53:06;;;;;;;5.00;4.60;;;22.20;99.90;;;;;;5012531;28;20462;-79
2022/07/31 02:55:44;;;;;;;6.00;5.40;;;22.20;99.90;;;;;;5013175;28;20428;-80
2022/07/31 02:58:13;;;;;;;5.20;4.80;;;22.20;99.90;;;;;;5012722;28;20440;-81
2022/07/31 03:00:50;;;;;;;5.90;4.97;;;22.10;99.90;;;;;;5012521;28;21052;-78
2022/07/31 03:03:25;;;;;;;5.43;4.93;;;22.10;99.90;;;;;;5012675;28;20551;-79
2022/07/31 03:05:52;;;;;;;4.77;4.37;;;22.10;99.90;;;;;;5012447;28;20466;-80
2022/07/31 03:08:26;;;;;;;5.90;5.40;;;22.10;99.90;;;;;;5012472;28;21068;-80
2022/07/31 03:10:54;;;;;;;6.40;5.20;;;22.10;99.90;;;;;;5012986;28;20424;-79
2022/07/31 03:13:24;;;;;;;5.37;4.87;;;22.10;99.90;;;;;;5012648;28;21112;-83
2022/07/31 03:16:18;;;;;;;5.83;5.23;;;22.10;99.90;;;;;;5012786;28;20488;-79
2022/07/31 03:18:45;;;;;;;5.23;4.80;;;22.10;99.90;;;;;;5040777;23;21049;-79
2022/07/31 03:21:17;;;;;;;5.50;5.00;;;22.10;99.90;;;;;;5032003;28;20486;-82
2022/07/31 03:23:44;;;;;;;5.70;5.20;;;22.10;99.90;;;;;;5012424;28;20420;-79
2022/07/31 03:26:13;;;;;;;4.80;4.13;;;22.10;99.90;;;;;;5012451;28;20502;-81
2022/07/31 03:28:42;;;;;;;6.07;4.60;;;22.10;99.90;;;;;;4996657;28;20835;-80
2022/07/31 03:31:09;;;;;;;4.93;4.53;;;22.10;99.90;;;;;;5012473;28;20953;-80
2022/07/31 03:33:41;;;;;;;4.97;4.57;;;22.10;99.90;;;;;;5012717;28;20432;-79
2022/07/31 03:36:16;;;;;;;5.43;4.87;;;22.10;99.90;;;;;;5013826;28;20467;-79
2022/07/31 03:38:48;;;;;;;4.73;4.33;;;22.10;99.90;;;;;;5012531;28;21044;-79
2022/07/31 03:41:19;;;;;;;5.20;4.67;;;22.10;99.90;;;;;;5012368;28;20516;-79
2022/07/31 03:43:51;;;;;;;4.90;4.50;;;22.10;99.90;;;;;;5015579;28;20486;-81
2022/07/31 03:46:27;;;;;;;5.03;4.53;;;22.00;99.90;;;;;;5015790;28;20796;-80
2022/07/31 03:48:57;;;;;;;5.10;4.60;;;22.00;99.90;;;;;;5016025;28;20931;-82
2022/07/31 03:51:34;;;;;;;5.67;5.07;;;22.00;99.90;;;;;;5015728;28;20451;-80
2022/07/31 03:54:06;;;;;;;5.60;5.10;;;22.00;99.90;;;;;;5015671;28;20431;-82
2022/07/31 03:56:45;;;;;;;5.30;4.53;;;22.00;99.90;;;;;;5015717;28;20460;-79
2022/07/31 03:59:14;;;;;;;5.03;4.53;;;22.00;99.90;;;;;;5015371;28;20427;-79
2022/07/31 04:01:46;;;;;;;5.20;4.70;;;21.90;99.90;;;;;;5016986;28;20491;-82
2022/07/31 04:04:12;;;;;;;5.50;5.00;;;22.00;99.90;;;;;;5015579;28;20404;-82
2022/07/31 04:06:48;;;;;;;6.27;5.43;;;22.00;99.90;;;;;;5015569;28;20460;-79
2022/07/31 04:09:20;;;;;;;5.50;5.00;;;22.00;99.90;;;;;;5015455;28;20912;-82
2022/07/31 04:11:50;;;;;;;6.13;5.53;;;21.90;99.90;;;;;;5015157;28;20464;-79
2022/07/31 04:14:22;;;;;;;5.67;5.10;;;21.90;99.90;;;;;;5015747;28;20789;-82
2022/07/31 04:16:57;;;;;;;7.70;5.07;;;22.00;99.90;;;;;;5014742;28;20495;-83
2022/07/31 04:19:29;;;;;;;5.37;4.87;;;22.00;99.90;;;;;;5015546;28;20456;-82
2022/07/31 04:21:58;;;;;;;5.57;5.07;;;22.00;99.90;;;;;;5016663;28;20484;-78
2022/07/31 04:24:24;;;;;;;6.37;5.30;;;22.00;99.90;;;;;;5015194;28;20420;-79
2022/07/31 04:26:56;;;;;;;7.43;4.63;;;22.00;99.90;;;;;;5014980;28;20471;-80
2022/07/31 04:29:27;;;;;;;6.00;5.00;;;22.00;99.90;;;;;;5014201;28;20425;-79
2022/07/31 04:32:02;;;;;;;5.37;4.87;;;22.00;99.90;;;;;;5015034;28;20468;-83
2022/07/31 04:34:30;;;;;;;4.60;4.20;;;22.00;99.90;;;;;;5014967;28;20412;-79
2022/07/31 04:37:01;;;;;;;5.17;4.67;;;22.00;99.90;;;;;;5014734;28;20456;-79
2022/07/31 04:39:38;;;;;;;7.50;5.40;;;22.00;99.90;;;;;;5015059;28;20922;-78
2022/07/31 04:42:10;;;;;;;5.77;5.27;;;22.00;99.90;;;;;;5014761;28;20602;-79
2022/07/31 04:44:36;;;;;;;4.30;4.00;;;22.00;99.90;;;;;;5014915;28;20412;-79
2022/07/31 04:47:03;;;;;;;5.07;4.57;;;22.00;99.90;;;;;;5014623;28;20923;-81
2022/07/31 04:49:37;;;;;;;5.27;4.77;;;22.00;99.90;;;;;;5014844;28;20772;-82
2022/07/31 04:52:03;;;;;;;5.50;4.90;;;22.00;99.90;;;;;;5031216;28;20468;-78
2022/07/31 04:54:33;;;;;;;5.07;4.67;;;22.00;99.90;;;;;;5013699;28;20416;-79
2022/07/31 04:57:04;;;;;;;6.00;4.77;;;22.00;99.90;;;;;;5014493;28;20448;-81
2022/07/31 04:59:33;;;;;;;4.90;4.50;;;22.00;99.90;;;;;;5015690;28;20458;-79
2022/07/31 05:02:25;;;;;;;5.30;4.80;;;22.00;99.90;;;;;;5014495;28;20492;-81
2022/07/31 05:04:59;;;;;;;4.90;4.50;;;22.00;99.90;;;;;;5015866;28;20867;-78
2022/07/31 05:07:25;;;;;;;4.40;4.07;;;22.00;99.90;;;;;;5014330;28;20453;-79
2022/07/31 05:09:57;;;;;;;4.40;4.00;;;22.10;99.90;;;;;;5014720;28;20413;-78
2022/07/31 05:12:26;;;;;;;5.30;4.80;;;22.10;99.90;;;;;;5014500;28;20826;-79
2022/07/31 05:15:06;;;;;;;5.00;4.60;;;22.10;99.90;;;;;;5014829;28;20781;-81
2022/07/31 05:17:41;;;;;;;5.70;4.50;;;22.10;99.90;;;;;;5014373;28;20888;-81
2022/07/31 05:20:13;;;;;;;5.00;4.40;;;22.10;99.90;;;;;;5014239;28;20421;-82
2022/07/31 05:22:48;;;;;;;4.90;4.40;;;22.10;99.90;;;;;;5014051;28;20445;-82
2022/07/31 05:25:14;;;;;;;4.80;4.40;;;22.20;99.90;;;;;;5014546;28;20921;-79
2022/07/31 05:28:06;;;;;;;5.10;4.50;;;22.20;99.90;;;;;;5013908;28;20607;-83
2022/07/31 05:30:33;;;;;;;4.90;4.40;;;22.30;99.90;;;;;;5014466;28;20416;-83
2022/07/31 05:33:00;;;;;;;5.00;4.43;;;22.30;99.90;;;;;;5014043;28;20452;-78
2022/07/31 05:35:37;;;;;;;4.90;4.40;;;22.30;99.90;;;;;;5014312;28;20408;-81
2022/07/31 05:38:05;;;;;;;4.50;4.10;;;22.30;99.90;;;;;;5014328;28;21016;-78
2022/07/31 05:40:42;;;;;;;4.60;4.20;;;22.30;99.90;;;;;;5015272;28;20463;-82
2022/07/31 05:43:09;;;;;;;4.70;4.27;;;22.30;99.90;;;;;;5013932;28;20860;-78
2022/07/31 05:45:37;;;;;;;4.53;4.10;;;22.40;99.90;;;;;;5013929;28;20423;-78
2022/07/31 05:48:04;;;;;;;4.43;4.03;;;22.40;99.90;;;;;;5013657;28;20509;-83
2022/07/31 05:50:38;;;;;;;3.90;3.50;;;22.40;99.90;;;;;;5015346;28;20425;-82
2022/07/31 05:53:16;;;;;;;4.50;4.10;;;22.40;99.90;;;;;;5013824;28;20460;-82
2022/07/31 05:55:54;;;;;;;4.70;3.50;;;22.40;99.90;;;;;;5013556;28;20420;-79
2022/07/31 05:58:29;;;;;;;4.47;4.07;;;22.50;99.90;;;;;;5013695;28;20447;-81
2022/07/31 06:01:14;;;;;;;7.57;5.40;;;22.50;99.90;;;;;;5013680;28;20464;-78
2022/07/31 06:03:52;;;;;;;6.80;4.00;;;22.50;99.90;;;;;;5013448;28;20505;-79
2022/07/31 06:06:24;;;;;;;4.80;4.03;;;22.60;99.90;;;;;;5013236;28;20428;-83
2022/07/31 06:08:50;;;;;;;4.67;3.30;;;22.60;99.90;;;;;;5014508;28;20381;-82
2022/07/31 06:11:24;;;;;;;5.80;4.10;;;22.60;99.90;;;;;;5013077;28;20468;-83
2022/07/31 06:13:57;;;;;;;9.77;3.70;;;22.60;99.90;;;;;;5013669;28;20412;-82
2022/07/31 06:16:28;;;;;;;3.87;3.57;;;22.60;99.90;;;;;;5013019;28;20470;-81
2022/07/31 06:19:04;;;;;;;5.43;4.10;;;22.60;99.90;;;;;;5013096;28;20441;-82
2022/07/31 06:21:40;;;;;;;4.00;3.70;;;22.60;99.90;;;;;;5013108;28;20488;-79
2022/07/31 06:24:09;;;;;;;4.97;4.10;;;22.60;99.90;;;;;;5013184;28;20495;-79
2022/07/31 06:26:39;;;;;;;3.47;3.17;;;22.70;99.90;;;;;;5012884;28;20539;-82
2022/07/31 06:29:16;;;;;;;3.43;3.13;;;22.70;99.90;;;;;;5013513;28;20425;-83
2022/07/31 06:31:42;;;;;;;3.43;3.13;;;22.70;99.90;;;;;;5013088;28;20848;-78
2022/07/31 06:34:08;;;;;;;3.77;3.40;;;22.80;99.90;;;;;;5012976;28;20925;-80
2022/07/31 06:36:35;;;;;;;3.20;3.00;;;22.80;99.90;;;;;;5012801;28;20467;-78
2022/07/31 06:39:04;;;;;;;4.70;3.53;;;22.80;99.90;;;;;;5012977;28;20607;-82
2022/07/31 06:42:08;;;;;;;3.20;3.00;;;22.90;99.90;;;;;;5028496;28;20243;-81
2022/07/31 06:44:35;;;;;;;5.60;2.93;;;22.90;99.90;;;;;;5013080;28;20424;-79
2022/07/31 06:47:17;;;;;;;3.43;3.13;;;22.90;99.90;;;;;;5013373;28;20459;-82
2022/07/31 06:49:53;;;;;;;3.23;3.03;;;22.90;99.90;;;;;;5013137;28;20448;-82
2022/07/31 06:52:22;;;;;;;6.50;3.53;;;23.00;99.90;;;;;;5013078;28;20452;-78
2022/07/31 06:55:09;;;;;;;3.30;3.00;;;23.00;99.90;;;;;;5013313;28;20446;-82
2022/07/31 06:57:38;;;;;;;11.17;3.03;;;23.10;99.90;;;;;;5013020;28;20506;-78
2022/07/31 07:00:08;;;;;;;3.70;3.40;;;23.20;99.90;;;;;;5013119;28;20439;-81
2022/07/31 07:02:35;;;;;;;3.30;3.00;;;23.20;99.90;;;;;;5013405;28;20464;-79
2022/07/31 07:05:02;;;;;;;3.40;3.10;;;23.30;99.90;;;;;;5013112;28;20451;-79
2022/07/31 07:07:39;;;;;;;11.50;3.40;;;23.30;99.90;;;;;;5014232;28;20441;-82
2022/07/31 07:10:08;;;;;;;3.97;3.67;;;23.30;99.90;;;;;;5013006;28;20466;-83
2022/07/31 07:12:42;;;;;;;2.90;2.70;;;23.40;99.90;;;;;;5012954;28;20452;-82
2022/07/31 07:15:14;;;;;;;2.80;2.60;;;23.40;99.90;;;;;;5012991;28;20963;-78
2022/07/31 07:17:42;;;;;;;3.30;3.00;;;23.50;99.90;;;;;;5014115;28;20490;-79
2022/07/31 07:20:13;;;;;;;2.90;2.60;;;23.60;99.90;;;;;;5016626;28;20505;-79
2022/07/31 07:22:54;;;;;;;2.80;2.60;;;23.70;99.90;;;;;;5016706;28;20500;-82
2022/07/31 07:25:25;;;;;;;5.83;2.40;;;23.70;99.90;;;;;;5017965;28;20393;-82
2022/07/31 07:27:52;;;;;;;2.70;2.50;;;23.80;99.90;;;;;;5016278;28;20939;-81
2022/07/31 07:30:27;;;;;;;4.20;3.17;;;23.90;99.90;;;;;;5016630;28;20415;-82
2022/07/31 07:32:55;;;;;;;4.83;2.60;;;23.90;99.90;;;;;;5016509;28;20457;-78
2022/07/31 07:35:27;;;;;;;2.93;2.43;;;23.90;99.90;;;;;;5016843;28;20423;-78
2022/07/31 07:38:03;;;;;;;2.97;2.67;;;23.90;99.90;;;;;;5017255;28;20848;-79
2022/07/31 07:40:34;;;;;;;4.33;3.07;;;23.80;99.90;;;;;;5016313;28;20465;-78
2022/07/31 07:43:04;;;;;;;5.50;2.73;;;23.80;99.90;;;;;;5016441;28;20461;-84
2022/07/31 07:45:30;;;;;;;5.63;2.43;;;23.80;99.90;;;;;;5016285;28;20875;-79
2022/07/31 07:48:05;;;;;;;3.40;3.07;;;23.80;99.90;;;;;;5016313;28;20969;-82
2022/07/31 07:50:34;;;;;;;2.63;2.43;;;23.80;99.90;;;;;;5014960;28;20430;-83
2022/07/31 07:53:11;;;;;;;5.27;2.40;;;23.80;99.90;;;;;;5014739;28;20518;-82
2022/07/31 07:55:43;;;;;;;3.13;2.83;;;23.80;99.90;;;;;;5015224;28;20436;-82
2022/07/31 07:58:18;;;;;;;2.90;2.30;;;23.80;99.90;;;;;;5015059;28;20448;-83
2022/07/31 08:00:45;;;;;;;4.70;2.17;;;23.90;99.90;;;;;;5014502;28;20806;-79
2022/07/31 08:03:17;;;;;;;2.60;2.40;;;23.90;99.90;;;;;;5014104;28;20430;-83
2022/07/31 08:05:53;;;;;;;2.87;2.57;;;23.90;99.90;;;;;;5013480;28;20191;-83
2022/07/31 08:08:24;;;;;;;2.17;2.00;;;24.00;99.90;;;;;;5013444;28;20452;-82
2022/07/31 08:10:53;;;;;;;2.63;2.43;;;24.00;99.90;;;;;;5013313;28;20549;-82
2022/07/31 08:13:24;;;;;;;5.10;2.63;;;24.00;99.90;;;;;;5013610;28;20740;-80
2022/07/31 08:15:51;;;;;;;2.63;2.37;;;24.00;99.90;;;;;;5014781;28;20994;-82
2022/07/31 08:18:21;;;;;;;2.97;2.73;;;23.90;99.90;;;;;;5015252;28;20564;-80
2022/07/31 08:20:47;;;;;;;3.27;3.07;;;23.90;99.90;;;;;;5015954;28;20878;-80
2022/07/31 08:23:18;;;;;;;3.17;2.10;;;23.90;99.90;;;;;;5016855;28;20461;-82
2022/07/31 08:25:44;;;;;;;3.70;2.27;;;23.90;99.90;;;;;;5015383;28;20172;-79
2022/07/31 08:28:13;;;;;;;4.30;2.23;;;23.90;99.90;;;;;;5015362;28;20470;-81
2022/07/31 08:30:45;;;;;;;3.17;2.17;;;23.90;99.90;;;;;;5015533;28;20461;-83
2022/07/31 08:33:17;;;;;;;3.00;2.80;;;23.80;99.90;;;;;;5016293;28;20493;-83
2022/07/31 08:35:45;;;;;;;4.00;2.90;;;23.80;99.90;;;;;;5014985;28;20417;-79
2022/07/31 08:38:12;;;;;;;2.90;2.70;;;23.80;99.90;;;;;;5015182;28;20429;-79
2022/07/31 08:40:41;;;;;;;2.60;2.40;;;23.80;99.90;;;;;;5014745;28;20470;-79
2022/07/31 08:43:12;;;;;;;2.90;2.60;;;23.80;99.90;;;;;;5015041;28;20444;-84
2022/07/31 08:45:39;;;;;;;2.57;2.37;;;23.80;99.90;;;;;;5014950;28;20457;-78
2022/07/31 08:48:10;;;;;;;2.60;2.40;;;23.70;99.90;;;;;;5014966;28;20519;-80
2022/07/31 08:50:48;;;;;;;8.60;2.60;;;23.70;99.90;;;;;;5014445;28;20457;-79
2022/07/31 08:53:28;;;;;;;2.80;2.60;;;23.70;99.90;;;;;;5014901;28;20445;-81
2022/07/31 08:55:57;;;;;;;7.23;2.70;;;23.80;99.90;;;;;;5014752;28;20418;-83
2022/07/31 08:58:30;;;;;;;4.13;2.60;;;23.80;99.90;;;;;;5014583;28;20965;-84
2022/07/31 09:00:56;;;;;;;2.80;2.60;;;23.80;99.90;;;;;;5014790;28;20465;-82
2022/07/31 09:03:27;;;;;;;3.53;2.40;;;23.70;99.90;;;;;;5014980;28;20429;-80
2022/07/31 09:05:56;;;;;;;2.23;2.03;;;23.70;99.90;;;;;;5014768;28;20402;-84
2022/07/31 09:08:33;;;;;;;2.70;2.30;;;23.70;99.90;;;;;;5014277;28;20441;-83
2022/07/31 09:11:13;;;;;;;2.70;2.50;;;23.70;99.90;;;;;;5014510;28;20532;-80
2022/07/31 09:14:01;;;;;;;2.73;2.20;;;23.80;99.90;;;;;;5014447;28;20413;-83
2022/07/31 09:16:29;;;;;;;7.20;2.03;;;23.80;99.90;;;;;;5014518;28;21014;-79
2022/07/31 09:19:27;;;;;;;4.17;2.10;;;23.90;99.90;;;;;;5014718;28;20970;-83
2022/07/31 09:21:55;;;;;;;2.37;2.17;;;23.90;99.90;;;;;;5014194;28;20592;-83
2022/07/31 09:24:34;;;;;;;2.27;2.00;;;24.00;99.90;;;;;;5014184;28;20918;-80
2022/07/31 09:27:16;;;;;;;2.17;1.93;;;24.10;99.90;;;;;;5015242;28;20438;-80
2022/07/31 09:29:48;;;;;;;2.43;1.80;;;24.20;99.90;;;;;;5013892;28;20488;-83
2022/07/31 09:32:20;;;;;;;2.23;2.03;;;24.20;99.90;;;;;;5014278;28;20454;-83
2022/07/31 09:34:48;;;;;;;1.90;1.80;;;24.30;99.90;;;;;;5014391;28;20430;-80
2022/07/31 09:37:24;;;;;;;3.37;2.10;;;24.30;99.90;;;;;;5014056;28;20856;-84
2022/07/31 09:39:55;;;;;;;2.40;1.73;;;24.30;99.90;;;;;;5014159;28;20473;-84
2022/07/31 09:42:35;;;;;;;1.83;1.73;;;24.40;99.90;;;;;;5013960;28;20483;-83
2022/07/31 09:45:04;;;;;;;3.47;1.73;;;24.40;99.90;;;;;;5013935;28;20426;-79
2022/07/31 09:47:43;;;;;;;4.10;1.57;;;24.50;99.90;;;;;;5014048;28;20448;-79
2022/07/31 09:50:25;;;;;;;1.43;1.33;;;24.50;99.90;;;;;;5013919;28;20430;-84
2022/07/31 09:53:07;;;;;;;1.80;1.70;;;24.60;99.90;;;;;;5013768;28;20905;-83
2022/07/31 09:55:35;;;;;;;1.60;1.30;;;24.60;99.90;;;;;;5013593;28;20431;-79
2022/07/31 09:58:04;;;;;;;3.47;1.80;;;24.60;99.90;;;;;;5013698;28;20943;-80
2022/07/31 10:00:51;;;;;;;5.03;1.43;;;24.70;99.90;;;;;;5013471;28;20430;-82
2022/07/31 10:03:30;;;;;;;6.20;1.93;;;24.80;99.60;;;;;;5013892;28;20473;-82
2022/07/31 10:05:58;;;;;;;3.30;1.93;;;24.90;99.60;;;;;;5013562;28;20419;-80
2022/07/31 10:08:30;;;;;;;3.80;1.77;;;25.00;99.40;;;;;;5013651;28;21012;-79
2022/07/31 10:11:02;;;;;;;3.90;1.93;;;25.00;99.60;;;;;;5013511;28;20834;-82
2022/07/31 10:13:34;;;;;;;6.23;2.17;;;25.00;99.40;;;;;;5013689;28;20544;-83
2022/07/31 10:16:05;;;;;;;2.73;1.93;;;25.10;99.30;;;;;;5013657;28;20417;-80
2022/07/31 10:18:40;;;;;;;2.70;2.10;;;25.10;99.30;;;;;;5013697;28;20476;-81
2022/07/31 10:21:08;;;;;;;4.50;2.00;;;25.10;99.30;;;;;;5014257;28;20520;-79
2022/07/31 10:23:39;;;;;;;10.50;2.93;;;25.10;98.90;;;;;;5014013;28;20439;-80
2022/07/31 10:28:47;;;;;;;3.03;1.90;;;25.20;98.90;;;;;;5022476;22;20508;-79
2022/07/31 10:31:16;;;;;;;2.50;2.07;;;25.20;98.90;;;;;;5013450;28;20479;-83
2022/07/31 10:33:44;;;;;;;4.67;2.07;;;25.30;98.80;;;;;;4993624;28;20429;-83
2022/07/31 10:36:30;;;;;;;3.17;2.13;;;25.30;98.70;;;;;;4993728;28;20471;-83
2022/07/31 10:39:01;;;;;;;2.10;1.80;;;25.40;98.40;;;;;;4993679;28;20412;-79
2022/07/31 10:42:15;;;;;;;2.37;2.20;;;25.40;98.20;;;;;;4994892;28;20483;-79
2022/07/31 10:45:03;;;;;;;6.17;2.07;;;25.50;98.00;;;;;;4954307;28;20433;-82
2022/07/31 10:47:37;;;;;;;1.93;1.60;;;25.50;97.80;;;;;;4993201;28;20456;-80
2022/07/31 10:50:08;;;;;;;3.57;1.90;;;25.50;97.90;;;;;;4993283;28;20452;-82
2022/07/31 10:52:37;;;;;;;3.27;2.40;;;25.50;97.40;;;;;;4995117;28;21041;-79
2022/07/31 10:55:29;;;;;;;5.13;2.40;;;25.60;97.40;;;;;;4997470;28;20620;-79
2022/07/31 10:58:20;;;;;;;6.80;2.20;;;25.50;97.30;;;;;;4997982;28;20961;-79
2022/07/31 11:00:52;;;;;;;1.90;1.80;;;25.50;97.10;;;;;;4997142;28;20472;-84
2022/07/31 11:03:21;;;;;;;2.50;2.07;;;25.50;97.40;;;;;;4997506;28;20579;-82
2022/07/31 11:06:06;;;;;;;3.03;1.97;;;25.50;97.80;;;;;;4997985;28;20896;-82
2022/07/31 11:08:45;;;;;;;2.30;2.13;;;25.50;97.90;;;;;;4997313;28;20464;-79
2022/07/31 11:11:18;;;;;;;3.43;2.20;;;25.50;97.30;;;;;;4997287;28;20440;-80
2022/07/31 11:13:50;;;;;;;3.10;2.27;;;25.60;97.20;;;;;;4997071;28;20931;-78
2022/07/31 11:16:23;;;;;;;4.67;1.67;;;25.60;97.10;;;;;;4996961;28;20440;-82
2022/07/31 11:19:12;;;;;;;3.53;2.63;;;25.50;96.90;;;;;;4997243;28;20810;-79
2022/07/31 11:21:41;;;;;;;3.30;1.97;;;25.50;96.70;;;;;;4996718;28;20538;-80
2022/07/31 11:24:25;;;;;;;2.50;1.80;;;25.50;96.60;;;;;;4996908;28;20924;-80
2022/07/31 11:26:57;;;;;;;2.33;1.47;;;25.60;96.40;;;;;;4997706;28;20507;-79
2022/07/31 11:29:34;;;;;;;10.20;2.13;;;25.60;96.00;;;;;;4996695;28;20922;-84
2022/07/31 11:32:06;;;;;;;5.73;1.90;;;25.60;95.70;;;;;;4996693;28;20496;-82
2022/07/31 11:34:55;;;;;;;4.00;1.60;;;25.60;95.70;;;;;;4997215;28;20429;-78
2022/07/31 11:37:34;;;;;;;2.23;1.30;;;25.60;95.60;;;;;;4996731;28;21006;-79
2022/07/31 11:40:07;;;;;;;3.47;1.60;;;25.60;95.70;;;;;;4996762;28;20479;-82
2022/07/31 11:42:46;;;;;;;5.27;1.43;;;25.50;95.70;;;;;;4995275;28;20518;-78
2022/07/31 11:45:16;;;;;;;10.23;1.90;;;25.50;95.30;;;;;;4996040;28;20507;-79
2022/07/31 11:47:51;;;;;;;4.30;1.30;;;25.50;95.20;;;;;;4996538;28;20604;-77
2022/07/31 11:50:34;;;;;;;1.60;1.50;;;25.40;95.20;;;;;;4996511;28;20420;-83
2022/07/31 11:53:06;;;;;;;5.03;1.83;;;25.40;95.20;;;;;;4996320;28;20463;-79
2022/07/31 11:55:44;;;;;;;5.13;1.40;;;25.40;95.20;;;;;;4996589;28;20781;-79
2022/07/31 11:58:28;;;;;;;1.67;1.30;;;25.40;95.00;;;;;;4996032;28;20452;-81
2022/07/31 12:01:00;;;;;;;3.27;1.57;;;25.30;94.90;;;;;;4996150;28;20464;-82
2022/07/31 12:03:35;;;;;;;2.80;1.90;;;25.30;94.90;;;;;;4996159;28;20970;-82
2022/07/31 12:06:17;;;;;;;1.73;1.40;;;25.30;94.50;;;;;;4996784;28;20934;-79
2022/07/31 12:08:53;;;;;;;7.50;1.87;;;25.30;94.70;;;;;;4996346;28;20432;-83
2022/07/31 12:11:28;;;;;;;6.33;2.03;;;25.30;94.50;;;;;;4996722;28;20524;-80
2022/07/31 12:13:54;;;;;;;5.10;1.53;;;25.20;94.30;;;;;;4998118;28;20922;-79
2022/07/31 12:16:23;;;;;;;2.90;1.43;;;25.20;94.30;;;;;;5012161;28;20449;-78
2022/07/31 12:19:05;;;;;;;2.60;1.30;;;25.20;94.20;;;;;;5012454;28;20417;-82
2022/07/31 12:21:37;;;;;;;2.80;1.67;;;25.10;94.20;;;;;;4996268;28;20477;-78
2022/07/31 12:24:19;;;;;;;8.37;2.10;;;25.10;94.40;;;;;;4995820;28;20428;-81
2022/07/31 12:26:58;;;;;;;5.17;1.80;;;25.10;94.30;;;;;;4995638;28;21055;-79
2022/07/31 12:29:39;;;;;;;2.07;1.63;;;25.10;94.40;;;;;;4995576;28;20456;-79
2022/07/31 12:32:06;;;;;;;2.80;1.97;;;25.00;94.70;;;;;;4995631;28;20448;-80
2022/07/31 12:34:44;;;;;;;3.17;1.50;;;25.00;94.60;;;;;;4995804;28;20424;-82
2022/07/31 12:37:15;;;;;;;5.80;1.63;;;25.10;94.70;;;;;;4996634;28;20555;-79
2022/07/31 12:40:05;;;;;;;5.00;1.50;;;25.20;94.40;;;;;;4995455;28;20511;-80
2022/07/31 12:42:38;;;;;;;4.57;1.83;;;25.20;94.00;;;;;;4995664;28;20481;-82
2022/07/31 12:45:05;;;;;;;7.37;2.03;;;25.30;93.90;;;;;;4995450;28;20480;-78
2022/07/31 12:47:35;;;;;;;7.17;1.80;;;25.30;93.60;;;;;;4995456;28;20594;-80
2022/07/31 12:50:07;;;;;;;10.73;1.83;;;25.30;93.40;;;;;;4995711;28;20424;-82
2022/07/31 12:52:38;;;;;;;2.37;1.30;;;25.40;93.70;;;;;;4995213;28;21095;-81
2022/07/31 12:55:09;;;;;;;5.13;2.20;;;25.40;93.70;;;;;;4996474;28;20425;-79
2022/07/31 12:57:46;;;;;;;4.97;1.90;;;25.50;93.40;;;;;;4996802;28;20825;-83
2022/07/31 13:00:17;;;;;;;5.53;1.83;;;25.50;93.20;;;;;;4995267;28;20492;-83
2022/07/31 13:02:44;;;;;;;2.53;1.80;;;25.50;93.10;;;;;;4994847;28;20492;-78
2022/07/31 13:05:17;;;;;;;5.40;2.00;;;25.50;93.20;;;;;;4994829;28;20417;-82
2022/07/31 13:07:51;;;;;;;3.07;2.73;;;25.50;93.50;;;;;;4994883;28;20460;-81
2022/07/31 13:10:17;;;;;;;3.10;2.03;;;25.50;93.70;;;;;;4994924;28;20429;-78
2022/07/31 13:12:49;;;;;;;6.43;1.77;;;25.60;93.30;;;;;;4994897;28;20517;-82
2022/07/31 13:15:20;;;;;;;6.27;2.20;;;25.60;92.00;;;;;;5010581;28;20444;-80
2022/07/31 13:17:51;;;;;;;5.47;1.80;;;25.60;91.60;;;;;;4994724;28;20561;-78
2022/07/31 13:20:29;;;;;;;1.47;1.33;;;25.60;91.50;;;;;;4994486;28;20440;-78
2022/07/31 13:23:03;;;;;;;5.23;1.77;;;25.60;91.50;;;;;;4994794;28;20466;-79